createdAt,value
2022-12-06T00:02:10.978Z,43.97
2022-12-06T00:10:19.405Z,44.15
2022-12-06T00:18:24.749Z,50.53
2022-12-06T00:26:33.499Z,46.38
2022-12-06T00:34:38.954Z,50.95
2022-12-06T00:42:47.177Z,47.67
2022-12-06T00:50:53.087Z,49.22
2022-12-06T00:59:01.181Z,47.10
2022-12-06T01:07:06.570Z,46.35
2022-12-06T01:15:15.723Z,48.30
2022-12-06T01:23:21.080Z,46.03
2022-12-06T01:31:35.383Z,57.22
2022-12-06T01:39:42.830Z,52.53
2022-12-06T01:47:50.874Z,44.00
2022-12-06T01:55:57.729Z,40.05
2022-12-06T02:04:07.027Z,39.30
2022-12-06T02:12:16.017Z,38.05
2022-12-06T02:20:32.592Z,30.33
2022-12-06T02:29:07.820Z,35.33
2022-12-06T02:37:21.620Z,29.88
2022-12-06T02:45:31.799Z,31.83
2022-12-06T02:53:44.644Z,31.20
2022-12-06T03:01:55.234Z,30.33
2022-12-06T03:10:13.333Z,29.75
2022-12-06T03:18:24.275Z,32.40
2022-12-06T03:26:36.577Z,29.30
2022-12-06T03:34:44.121Z,29.95
2022-12-06T03:42:53.257Z,26.55
2022-12-06T03:51:02.787Z,35.97
2022-12-06T03:59:11.539Z,31.92
2022-12-06T04:07:21.385Z,32.80
2022-12-06T04:15:30.505Z,37.33
2022-12-06T04:23:39.042Z,35.42
2022-12-06T04:31:59.500Z,39.25
2022-12-06T04:40:05.402Z,44.88
2022-12-06T04:48:13.814Z,36.85
2022-12-06T04:56:19.411Z,44.22
2022-12-06T05:04:27.436Z,56.35
2022-12-06T05:12:32.958Z,49.42
2022-12-06T05:20:40.906Z,58.22
2022-12-06T05:28:46.829Z,60.45
2022-12-06T05:36:55.070Z,49.13
2022-12-06T05:45:00.442Z,35.65
2022-12-06T05:53:08.643Z,36.45
2022-12-06T06:01:14.125Z,39.65
2022-12-06T06:09:22.240Z,37.38
2022-12-06T06:17:27.963Z,34.60
2022-12-06T06:25:36.647Z,35.72
2022-12-06T06:33:42.026Z,36.78
2022-12-06T06:41:50.711Z,40.80
2022-12-06T06:49:56.049Z,39.17
2022-12-06T06:58:04.325Z,41.50
2022-12-06T07:06:12.644Z,43.58
2022-12-06T07:14:20.717Z,42.70
2022-12-06T07:22:26.011Z,40.47
2022-12-06T07:30:34.388Z,52.13
2022-12-06T07:38:40.012Z,56.15
2022-12-06T07:46:49.050Z,42.00
2022-12-06T07:54:54.538Z,41.00
2022-12-06T08:03:02.469Z,42.05
2022-12-06T08:11:10.715Z,40.25
2022-12-06T08:19:18.578Z,40.95
2022-12-06T08:27:24.133Z,40.03
2022-12-06T08:35:32.164Z,38.60
2022-12-06T08:43:37.889Z,34.08
2022-12-06T08:51:47.037Z,36.75
2022-12-06T08:59:53.229Z,34.35
2022-12-06T09:08:01.283Z,33.97
2022-12-06T09:16:10.807Z,38.85
2022-12-06T09:24:20.799Z,38.03
2022-12-06T09:32:43.608Z,43.85
2022-12-06T09:41:02.026Z,45.67
2022-12-06T09:49:40.968Z,45.70
2022-12-06T09:57:54.899Z,34.53
2022-12-06T10:06:06.245Z,24.48
2022-12-06T10:14:28.454Z,32.08
2022-12-06T10:22:46.165Z,27.75
2022-12-06T10:30:56.569Z,21.88
2022-12-06T10:39:14.333Z,30.60
2022-12-06T10:47:28.393Z,24.20
2022-12-06T10:55:38.687Z,19.30
2022-12-06T11:04:01.022Z,19.92
2022-12-06T11:12:19.555Z,22.95
2022-12-06T11:20:34.104Z,23.35
2022-12-06T11:28:44.842Z,24.00
2022-12-06T11:36:59.903Z,22.15
2022-12-06T11:45:10.282Z,23.15
2022-12-06T11:53:28.781Z,22.48
2022-12-06T12:01:44.783Z,22.70
2022-12-06T12:10:04.976Z,19.83
2022-12-06T12:18:26.593Z,20.10
2022-12-06T12:26:43.919Z,25.17
2022-12-06T12:34:49.978Z,25.83
2022-12-06T12:43:06.006Z,29.40
2022-12-06T12:51:25.715Z,28.30
2022-12-06T12:59:40.908Z,29.80
2022-12-06T13:07:50.299Z,25.58
2022-12-06T13:16:08.848Z,26.27
2022-12-06T13:24:25.239Z,27.10
2022-12-06T13:32:37.889Z,33.63
2022-12-06T13:40:52.516Z,23.88
2022-12-06T13:49:02.030Z,28.05
2022-12-06T13:57:27.061Z,22.73
2022-12-06T14:06:01.162Z,22.05
2022-12-06T14:14:09.817Z,27.90
2022-12-06T14:22:25.135Z,29.08
2022-12-06T14:30:31.285Z,26.00
2022-12-06T14:38:39.854Z,28.58
2022-12-06T14:46:47.226Z,29.95
2022-12-06T14:54:56.643Z,30.00
2022-12-06T15:03:22.839Z,32.97
2022-12-06T15:12:03.607Z,36.50
2022-12-06T15:20:20.365Z,32.05
2022-12-06T15:28:28.706Z,46.03
2022-12-06T15:36:36.715Z,53.55
2022-12-06T15:44:49.194Z,51.03
2022-12-06T15:52:55.415Z,55.53
2022-12-06T16:01:03.754Z,37.45
2022-12-06T16:09:09.664Z,23.65
2022-12-06T16:17:17.619Z,26.33
2022-12-06T16:25:23.303Z,23.92
2022-12-06T16:33:31.759Z,20.65
2022-12-06T16:41:39.025Z,18.67
2022-12-06T16:49:49.448Z,19.60
2022-12-06T16:57:55.097Z,20.55
2022-12-06T17:06:04.131Z,22.20
2022-12-06T17:14:14.478Z,26.80
2022-12-06T17:22:22.838Z,21.40
2022-12-06T17:30:28.217Z,21.77
2022-12-06T17:38:36.216Z,28.85
2022-12-06T17:46:42.679Z,18.65
2022-12-06T17:54:50.834Z,20.55
2022-12-06T18:02:56.599Z,26.20
2022-12-06T18:11:07.646Z,36.83
2022-12-06T18:19:15.629Z,34.78
2022-12-06T18:27:23.878Z,34.58
2022-12-06T18:35:29.593Z,35.53
2022-12-06T18:43:38.608Z,34.22
2022-12-06T18:51:44.905Z,25.05
2022-12-06T18:59:54.718Z,23.50
2022-12-06T19:08:00.212Z,24.48
2022-12-06T19:16:08.908Z,28.33
2022-12-06T19:24:16.258Z,28.20
2022-12-06T19:32:25.139Z,38.80
2022-12-06T19:40:30.471Z,43.67
2022-12-06T19:48:38.436Z,38.00
2022-12-06T19:56:43.852Z,30.30
2022-12-06T20:04:52.747Z,28.70
2022-12-06T20:12:58.842Z,26.67
2022-12-06T20:21:07.061Z,22.23
2022-12-06T20:29:13.866Z,25.20
2022-12-06T20:37:21.821Z,20.05
2022-12-06T20:45:27.145Z,24.77
2022-12-06T20:53:35.850Z,24.85
2022-12-06T21:01:43.863Z,35.33
2022-12-06T21:09:51.850Z,32.50
2022-12-06T21:17:57.880Z,33.03
2022-12-06T21:26:08.815Z,34.78
2022-12-06T21:34:14.597Z,34.10
2022-12-06T21:42:24.072Z,34.83
2022-12-06T21:50:29.503Z,40.03
2022-12-06T21:58:39.658Z,38.10
2022-12-06T22:06:45.113Z,39.05
2022-12-06T22:14:53.383Z,37.30
2022-12-06T22:22:59.834Z,43.72
2022-12-06T22:31:18.672Z,25.10
2022-12-06T22:39:24.303Z,20.30
2022-12-06T22:47:33.474Z,20.35
2022-12-06T22:55:38.848Z,20.52
2022-12-06T23:03:47.221Z,19.17
2022-12-06T23:11:52.656Z,19.02
2022-12-06T23:20:00.850Z,27.45
2022-12-06T23:28:06.494Z,24.48
2022-12-06T23:36:17.838Z,24.98
2022-12-06T23:44:25.272Z,24.05
2022-12-06T23:52:33.181Z,22.70
